METAR AND TAF INFORMATION
METAR FOR LFSX
ADDS - METARS form results

(0318 UTC 07 October 2022)
Data provider http://aviationweather.gov/metar/data/
 
METAR text: LFSX 070300Z AUTO VRB01KT 9999 FEW004 08/08 Q1026
Conditions at: LFSX (LUXEUIL/ST. SAUV, FR) observed 0300 UTC 07 October 2022
Temperature: 8.0°C (46°F)
Dewpoint: 8.0°C (46°F) [RH = 100%]
Pressure (altimeter): 30.30 inches Hg (1026.0 mb)
Winds: variable direction winds at 1 MPH (1 knots; 0.5 m/s)
Visibility: 6 or more miles (10+ km)
Ceiling: at least 12,000 feet AGL
Clouds: few clouds at 400 feet AGL
Weather: no significant weather observed at this time

METAR text: LFSX 070230Z AUTO 12002KT 9999 BKN002 09/08 Q1027
Conditions at: LFSX (LUXEUIL/ST. SAUV, FR) observed 0230 UTC 07 October 2022
Temperature: 9.0°C (48°F)
Dewpoint: 8.0°C (46°F) [RH = 93%]
Pressure (altimeter): 30.32 inches Hg (1027.0 mb)
Winds: from the ESE (120 degrees) at 2 MPH (2 knots; 1.0 m/s)
Visibility: 6 or more miles (10+ km)
Ceiling: 200 feet AGL
Clouds: broken clouds at 200 feet AGL
Weather: no significant weather observed at this time

Forecast for: LFSX (LUXEUIL/ST. SAUV, FR)
Text: TAF LFSX 062000Z 0621/0721 VRB03KT 9999 FEW040
Forecast period: 2100 UTC 06 October 2022 to 2100 UTC 07 October 2022
Forecast type: FROM: standard forecast or significant change
Winds: variable direction winds at 3 MPH (3 knots; 1.5 m/s)
Visibility: 6 or more miles (10+ km)
Ceiling: at least 12,000 feet AGL
Clouds: few clouds at 4000 feet AGL
Weather: no significant weather forecast for this period
Text: TEMPO 0700/0708 3000 BR
Forecast period: 0000 to 0800 UTC 07 October 2022
Forecast type: TEMPORARY: The following changes expected for less than half the time period
Visibility: 1.86 miles (2.99 km)
Ceiling: unknown
Clouds: missing
Weather: BR  (mist)
Text: PROB30
Forecast period: 0000 to 0700 UTC 07 October 2022
Forecast type: TEMPORARY: The following changes expected for less than half the time period
Visibility: 0.37 miles (0.60 km)
Ceiling: unknown
Clouds: missing
Weather: FG  (fog)

 AIRPORT MAP

 RUNWAY INFORMATION
Runway 04 Runway length 7596 ft Runway width 118 ft
Runway elevation 872 ft Runway displaced threshold 0 ft Runway heading 38
Runway 22 Runway length 7596 ft Runway width 118 ft
Runway elevation 913 ft Runway displaced threshold 0 ft Runway heading 218
Runway 11 Runway length 7982 ft Runway width 148 ft
Runway elevation 858 ft Runway displaced threshold 0 ft Runway heading 113
Runway 29 Runway length 7982 ft Runway width 148 ft
Runway elevation 885 ft Runway displaced threshold 0 ft Runway heading 293

 AIRPORT FREQUENCIES
Type APP Name LUXEUIL AP Frequency 129.925 MHZ
Type ARR Name LUXEUIL AR Frequency 39.702 MHZ
Type TWR Name LUXEUIL TW Frequency 122.1 MHZ

 AIRPORT NEAR NAVIGATION AIDS
Type VOR Name Luxeuil Frequency 117100 KHZ
Type TACAN Name Luxeuil Frequency 108200 KHZ
Type NDB Name Luxeuil Frequency 364 KHZ



Powered by Virtual Airlines Manager [v2.6.2]